sensor_id;sensor_type;location;lat;lon;timestamp;P1;durP1;ratioP1;P2;durP2;ratioP2
29720;SDS011;23665;51.044;3.748;2022-10-18T00:01:49;14.63;;;10.30;;
29720;SDS011;23665;51.044;3.748;2022-10-18T00:04:15;17.37;;;11.83;;
29720;SDS011;23665;51.044;3.748;2022-10-18T00:06:41;20.13;;;10.57;;
29720;SDS011;23665;51.044;3.748;2022-10-18T00:09:06;15.90;;;10.43;;
29720;SDS011;23665;51.044;3.748;2022-10-18T00:11:32;16.47;;;10.80;;
29720;SDS011;23665;51.044;3.748;2022-10-18T00:13:59;18.60;;;9.40;;
29720;SDS011;23665;51.044;3.748;2022-10-18T00:16:25;16.07;;;10.27;;
29720;SDS011;23665;51.044;3.748;2022-10-18T00:18:51;19.50;;;10.63;;
29720;SDS011;23665;51.044;3.748;2022-10-18T00:21:17;15.37;;;9.83;;
29720;SDS011;23665;51.044;3.748;2022-10-18T00:23:45;15.77;;;9.90;;
29720;SDS011;23665;51.044;3.748;2022-10-18T00:26:13;17.13;;;10.17;;
29720;SDS011;23665;51.044;3.748;2022-10-18T00:28:49;16.17;;;9.87;;
29720;SDS011;23665;51.044;3.748;2022-10-18T00:31:27;17.53;;;9.43;;
29720;SDS011;23665;51.044;3.748;2022-10-18T00:33:56;15.40;;;10.00;;
29720;SDS011;23665;51.044;3.748;2022-10-18T00:36:23;17.27;;;9.73;;
29720;SDS011;23665;51.044;3.748;2022-10-18T00:38:50;14.47;;;10.50;;
29720;SDS011;23665;51.044;3.748;2022-10-18T00:41:20;14.23;;;10.53;;
29720;SDS011;23665;51.044;3.748;2022-10-18T00:43:59;15.10;;;10.43;;
29720;SDS011;23665;51.044;3.748;2022-10-18T00:46:27;18.20;;;10.83;;
29720;SDS011;23665;51.044;3.748;2022-10-18T00:48:58;17.53;;;11.40;;
29720;SDS011;23665;51.044;3.748;2022-10-18T00:51:27;21.37;;;9.93;;
29720;SDS011;23665;51.044;3.748;2022-10-18T00:53:58;16.97;;;9.93;;
29720;SDS011;23665;51.044;3.748;2022-10-18T00:56:24;16.43;;;9.57;;
29720;SDS011;23665;51.044;3.748;2022-10-18T00:58:50;16.77;;;8.87;;
29720;SDS011;23665;51.044;3.748;2022-10-18T01:01:16;15.63;;;10.07;;
29720;SDS011;23665;51.044;3.748;2022-10-18T01:03:42;16.53;;;10.10;;
29720;SDS011;23665;51.044;3.748;2022-10-18T01:06:08;17.70;;;9.40;;
29720;SDS011;23665;51.044;3.748;2022-10-18T01:08:45;12.13;;;8.67;;
29720;SDS011;23665;51.044;3.748;2022-10-18T01:14:21;12.30;;;8.30;;
29720;SDS011;23665;51.044;3.748;2022-10-18T01:17:00;16.17;;;10.57;;
29720;SDS011;23665;51.044;3.748;2022-10-18T01:23:05;24.37;;;14.63;;
29720;SDS011;23665;51.044;3.748;2022-10-18T01:31:21;16.60;;;11.93;;
29720;SDS011;23665;51.044;3.748;2022-10-18T01:33:52;20.13;;;11.03;;
29720;SDS011;23665;51.044;3.748;2022-10-18T01:36:24;22.37;;;13.10;;
29720;SDS011;23665;51.044;3.748;2022-10-18T01:38:56;18.67;;;12.20;;
29720;SDS011;23665;51.044;3.748;2022-10-18T01:41:25;16.87;;;12.00;;
29720;SDS011;23665;51.044;3.748;2022-10-18T01:43:57;15.87;;;11.40;;
29720;SDS011;23665;51.044;3.748;2022-10-18T01:46:26;16.03;;;11.43;;
29720;SDS011;23665;51.044;3.748;2022-10-18T01:48:53;16.37;;;10.33;;
29720;SDS011;23665;51.044;3.748;2022-10-18T01:51:27;20.83;;;11.90;;
29720;SDS011;23665;51.044;3.748;2022-10-18T01:53:55;17.30;;;10.90;;
29720;SDS011;23665;51.044;3.748;2022-10-18T01:56:23;17.37;;;11.80;;
29720;SDS011;23665;51.044;3.748;2022-10-18T01:58:54;21.90;;;12.03;;
29720;SDS011;23665;51.044;3.748;2022-10-18T02:01:35;18.23;;;11.37;;
29720;SDS011;23665;51.044;3.748;2022-10-18T02:07:36;17.17;;;10.53;;
29720;SDS011;23665;51.044;3.748;2022-10-18T02:10:24;16.00;;;11.10;;
29720;SDS011;23665;51.044;3.748;2022-10-18T02:13:14;14.80;;;10.80;;
29720;SDS011;23665;51.044;3.748;2022-10-18T02:15:43;17.17;;;11.17;;
29720;SDS011;23665;51.044;3.748;2022-10-18T02:18:23;24.67;;;10.93;;
29720;SDS011;23665;51.044;3.748;2022-10-18T02:20:56;13.50;;;9.93;;
29720;SDS011;23665;51.044;3.748;2022-10-18T02:23:23;17.47;;;10.83;;
29720;SDS011;23665;51.044;3.748;2022-10-18T02:25:50;17.10;;;11.50;;
29720;SDS011;23665;51.044;3.748;2022-10-18T02:28:17;17.40;;;11.23;;
29720;SDS011;23665;51.044;3.748;2022-10-18T02:30:48;19.47;;;11.90;;
29720;SDS011;23665;51.044;3.748;2022-10-18T02:33:27;18.10;;;10.90;;
29720;SDS011;23665;51.044;3.748;2022-10-18T02:36:03;18.37;;;10.93;;
29720;SDS011;23665;51.044;3.748;2022-10-18T02:38:35;22.43;;;10.47;;
29720;SDS011;23665;51.044;3.748;2022-10-18T02:41:03;21.00;;;11.60;;
29720;SDS011;23665;51.044;3.748;2022-10-18T02:43:29;21.60;;;11.53;;
29720;SDS011;23665;51.044;3.748;2022-10-18T02:45:55;16.80;;;11.80;;
29720;SDS011;23665;51.044;3.748;2022-10-18T02:48:21;23.13;;;11.73;;
29720;SDS011;23665;51.044;3.748;2022-10-18T02:50:47;23.37;;;12.60;;
29720;SDS011;23665;51.044;3.748;2022-10-18T02:53:14;20.57;;;11.77;;
29720;SDS011;23665;51.044;3.748;2022-10-18T02:55:40;26.40;;;11.10;;
29720;SDS011;23665;51.044;3.748;2022-10-18T02:58:05;19.30;;;11.67;;
29720;SDS011;23665;51.044;3.748;2022-10-18T03:00:31;24.03;;;12.10;;
29720;SDS011;23665;51.044;3.748;2022-10-18T03:02:57;21.53;;;11.70;;
29720;SDS011;23665;51.044;3.748;2022-10-18T03:05:23;20.27;;;11.80;;
29720;SDS011;23665;51.044;3.748;2022-10-18T03:07:49;22.33;;;11.50;;
29720;SDS011;23665;51.044;3.748;2022-10-18T03:10:15;17.57;;;10.70;;
29720;SDS011;23665;51.044;3.748;2022-10-18T03:12:41;21.23;;;11.50;;
29720;SDS011;23665;51.044;3.748;2022-10-18T03:15:06;20.03;;;11.30;;
29720;SDS011;23665;51.044;3.748;2022-10-18T03:17:32;20.50;;;9.67;;
29720;SDS011;23665;51.044;3.748;2022-10-18T03:19:58;20.60;;;11.03;;
29720;SDS011;23665;51.044;3.748;2022-10-18T03:22:24;19.77;;;10.23;;
29720;SDS011;23665;51.044;3.748;2022-10-18T03:24:52;16.10;;;11.30;;
29720;SDS011;23665;51.044;3.748;2022-10-18T03:27:18;22.37;;;11.13;;
29720;SDS011;23665;51.044;3.748;2022-10-18T03:29:43;21.13;;;11.00;;
29720;SDS011;23665;51.044;3.748;2022-10-18T03:32:09;23.23;;;10.83;;
29720;SDS011;23665;51.044;3.748;2022-10-18T03:34:35;18.20;;;9.30;;
29720;SDS011;23665;51.044;3.748;2022-10-18T03:37:01;18.37;;;10.47;;
29720;SDS011;23665;51.044;3.748;2022-10-18T03:39:26;20.10;;;10.00;;
29720;SDS011;23665;51.044;3.748;2022-10-18T03:41:52;23.00;;;10.20;;
29720;SDS011;23665;51.044;3.748;2022-10-18T03:44:18;29.57;;;10.03;;
29720;SDS011;23665;51.044;3.748;2022-10-18T03:46:44;27.30;;;9.93;;
29720;SDS011;23665;51.044;3.748;2022-10-18T03:49:10;17.83;;;8.70;;
29720;SDS011;23665;51.044;3.748;2022-10-18T03:51:36;27.77;;;11.40;;
29720;SDS011;23665;51.044;3.748;2022-10-18T03:54:02;19.93;;;10.63;;
29720;SDS011;23665;51.044;3.748;2022-10-18T03:56:27;29.10;;;10.10;;
29720;SDS011;23665;51.044;3.748;2022-10-18T03:58:53;16.40;;;10.40;;
29720;SDS011;23665;51.044;3.748;2022-10-18T04:01:19;24.40;;;12.27;;
29720;SDS011;23665;51.044;3.748;2022-10-18T04:03:45;27.70;;;12.63;;
29720;SDS011;23665;51.044;3.748;2022-10-18T04:06:10;25.07;;;14.63;;
29720;SDS011;23665;51.044;3.748;2022-10-18T04:08:37;21.60;;;15.27;;
29720;SDS011;23665;51.044;3.748;2022-10-18T04:11:06;31.13;;;14.23;;
29720;SDS011;23665;51.044;3.748;2022-10-18T04:13:36;23.60;;;14.47;;
29720;SDS011;23665;51.044;3.748;2022-10-18T04:16:02;28.83;;;14.07;;
29720;SDS011;23665;51.044;3.748;2022-10-18T04:18:28;20.47;;;13.10;;
29720;SDS011;23665;51.044;3.748;2022-10-18T04:20:54;24.10;;;13.37;;
29720;SDS011;23665;51.044;3.748;2022-10-18T04:23:19;21.87;;;12.47;;
29720;SDS011;23665;51.044;3.748;2022-10-18T04:25:45;25.50;;;12.83;;
29720;SDS011;23665;51.044;3.748;2022-10-18T04:28:11;28.50;;;13.37;;
29720;SDS011;23665;51.044;3.748;2022-10-18T04:30:37;24.13;;;13.03;;
29720;SDS011;23665;51.044;3.748;2022-10-18T04:33:02;24.77;;;12.77;;
29720;SDS011;23665;51.044;3.748;2022-10-18T04:35:28;21.47;;;12.50;;
29720;SDS011;23665;51.044;3.748;2022-10-18T04:37:54;20.57;;;12.70;;
29720;SDS011;23665;51.044;3.748;2022-10-18T04:40:20;26.10;;;12.83;;
29720;SDS011;23665;51.044;3.748;2022-10-18T04:42:46;24.77;;;13.10;;
29720;SDS011;23665;51.044;3.748;2022-10-18T04:45:11;25.67;;;13.07;;
29720;SDS011;23665;51.044;3.748;2022-10-18T04:47:37;23.07;;;12.60;;
29720;SDS011;23665;51.044;3.748;2022-10-18T04:50:03;21.43;;;13.43;;
29720;SDS011;23665;51.044;3.748;2022-10-18T04:52:30;20.97;;;13.03;;
29720;SDS011;23665;51.044;3.748;2022-10-18T04:54:56;22.07;;;13.37;;
29720;SDS011;23665;51.044;3.748;2022-10-18T04:57:21;23.27;;;13.13;;
29720;SDS011;23665;51.044;3.748;2022-10-18T04:59:47;24.10;;;13.30;;
29720;SDS011;23665;51.044;3.748;2022-10-18T05:02:13;26.77;;;13.63;;
29720;SDS011;23665;51.044;3.748;2022-10-18T05:04:38;27.57;;;14.87;;
29720;SDS011;23665;51.044;3.748;2022-10-18T05:07:04;27.50;;;14.93;;
29720;SDS011;23665;51.044;3.748;2022-10-18T05:09:30;22.17;;;14.57;;
29720;SDS011;23665;51.044;3.748;2022-10-18T05:11:57;30.63;;;14.87;;
29720;SDS011;23665;51.044;3.748;2022-10-18T05:14:22;25.30;;;14.00;;
29720;SDS011;23665;51.044;3.748;2022-10-18T05:16:48;29.13;;;13.73;;
29720;SDS011;23665;51.044;3.748;2022-10-18T05:19:14;23.83;;;13.97;;
29720;SDS011;23665;51.044;3.748;2022-10-18T05:21:40;24.13;;;13.73;;
29720;SDS011;23665;51.044;3.748;2022-10-18T05:24:06;21.43;;;13.57;;
29720;SDS011;23665;51.044;3.748;2022-10-18T05:26:34;29.03;;;13.53;;
29720;SDS011;23665;51.044;3.748;2022-10-18T05:28:59;30.73;;;14.43;;
29720;SDS011;23665;51.044;3.748;2022-10-18T05:31:25;27.57;;;13.63;;
29720;SDS011;23665;51.044;3.748;2022-10-18T05:33:51;24.07;;;13.33;;
29720;SDS011;23665;51.044;3.748;2022-10-18T05:36:17;30.57;;;13.57;;
29720;SDS011;23665;51.044;3.748;2022-10-18T05:38:42;21.07;;;12.00;;
29720;SDS011;23665;51.044;3.748;2022-10-18T05:41:09;40.90;;;14.27;;
29720;SDS011;23665;51.044;3.748;2022-10-18T05:43:36;24.83;;;15.47;;
29720;SDS011;23665;51.044;3.748;2022-10-18T05:46:02;30.67;;;13.73;;
29720;SDS011;23665;51.044;3.748;2022-10-18T05:48:29;31.40;;;14.60;;
29720;SDS011;23665;51.044;3.748;2022-10-18T05:50:59;37.23;;;13.63;;
29720;SDS011;23665;51.044;3.748;2022-10-18T05:53:25;34.73;;;14.67;;
29720;SDS011;23665;51.044;3.748;2022-10-18T05:55:51;26.33;;;13.80;;
29720;SDS011;23665;51.044;3.748;2022-10-18T05:58:17;28.47;;;14.33;;
29720;SDS011;23665;51.044;3.748;2022-10-18T06:00:43;34.43;;;14.53;;
29720;SDS011;23665;51.044;3.748;2022-10-18T06:03:09;27.13;;;13.50;;
29720;SDS011;23665;51.044;3.748;2022-10-18T06:05:35;29.30;;;14.13;;
29720;SDS011;23665;51.044;3.748;2022-10-18T06:08:00;36.50;;;13.23;;
29720;SDS011;23665;51.044;3.748;2022-10-18T06:10:26;27.30;;;13.43;;
29720;SDS011;23665;51.044;3.748;2022-10-18T06:12:52;34.83;;;14.53;;
29720;SDS011;23665;51.044;3.748;2022-10-18T06:15:18;26.63;;;14.83;;
29720;SDS011;23665;51.044;3.748;2022-10-18T06:17:44;32.40;;;15.10;;
29720;SDS011;23665;51.044;3.748;2022-10-18T06:20:09;30.70;;;13.83;;
29720;SDS011;23665;51.044;3.748;2022-10-18T06:22:35;33.83;;;14.47;;
29720;SDS011;23665;51.044;3.748;2022-10-18T06:25:01;31.50;;;13.93;;
29720;SDS011;23665;51.044;3.748;2022-10-18T06:27:27;28.97;;;14.90;;
29720;SDS011;23665;51.044;3.748;2022-10-18T06:29:53;23.87;;;13.93;;
29720;SDS011;23665;51.044;3.748;2022-10-18T06:32:18;24.60;;;13.40;;
29720;SDS011;23665;51.044;3.748;2022-10-18T06:34:44;30.97;;;14.53;;
29720;SDS011;23665;51.044;3.748;2022-10-18T06:37:10;25.53;;;14.67;;
29720;SDS011;23665;51.044;3.748;2022-10-18T06:39:36;32.33;;;14.50;;
29720;SDS011;23665;51.044;3.748;2022-10-18T06:42:02;34.00;;;16.67;;
29720;SDS011;23665;51.044;3.748;2022-10-18T06:44:27;30.07;;;14.67;;
29720;SDS011;23665;51.044;3.748;2022-10-18T06:46:55;24.77;;;15.10;;
29720;SDS011;23665;51.044;3.748;2022-10-18T06:49:20;33.47;;;14.60;;
29720;SDS011;23665;51.044;3.748;2022-10-18T06:51:46;23.87;;;14.97;;
29720;SDS011;23665;51.044;3.748;2022-10-18T06:54:13;37.73;;;16.70;;
29720;SDS011;23665;51.044;3.748;2022-10-18T06:56:39;34.00;;;15.87;;
29720;SDS011;23665;51.044;3.748;2022-10-18T06:59:05;27.33;;;16.67;;
29720;SDS011;23665;51.044;3.748;2022-10-18T07:01:31;43.33;;;19.17;;
29720;SDS011;23665;51.044;3.748;2022-10-18T07:03:57;34.50;;;17.23;;
29720;SDS011;23665;51.044;3.748;2022-10-18T07:06:23;36.10;;;17.80;;
29720;SDS011;23665;51.044;3.748;2022-10-18T07:08:49;30.53;;;17.53;;
29720;SDS011;23665;51.044;3.748;2022-10-18T07:11:20;35.03;;;19.10;;
29720;SDS011;23665;51.044;3.748;2022-10-18T07:13:50;40.03;;;18.40;;
29720;SDS011;23665;51.044;3.748;2022-10-18T07:16:18;34.73;;;19.10;;
29720;SDS011;23665;51.044;3.748;2022-10-18T07:18:45;35.20;;;18.83;;
29720;SDS011;23665;51.044;3.748;2022-10-18T07:21:16;41.47;;;20.60;;
29720;SDS011;23665;51.044;3.748;2022-10-18T07:23:43;41.43;;;19.37;;
29720;SDS011;23665;51.044;3.748;2022-10-18T07:26:14;42.30;;;20.33;;
29720;SDS011;23665;51.044;3.748;2022-10-18T07:28:54;41.33;;;21.07;;
29720;SDS011;23665;51.044;3.748;2022-10-18T07:31:25;36.50;;;21.07;;
29720;SDS011;23665;51.044;3.748;2022-10-18T07:33:52;38.73;;;21.23;;
29720;SDS011;23665;51.044;3.748;2022-10-18T07:36:18;51.70;;;22.53;;
29720;SDS011;23665;51.044;3.748;2022-10-18T07:38:48;50.67;;;23.03;;
29720;SDS011;23665;51.044;3.748;2022-10-18T07:41:16;47.83;;;22.53;;
29720;SDS011;23665;51.044;3.748;2022-10-18T07:43:43;47.53;;;22.27;;
29720;SDS011;23665;51.044;3.748;2022-10-18T07:46:10;46.13;;;21.70;;
29720;SDS011;23665;51.044;3.748;2022-10-18T07:48:37;50.87;;;23.13;;
29720;SDS011;23665;51.044;3.748;2022-10-18T07:51:03;43.90;;;21.87;;
29720;SDS011;23665;51.044;3.748;2022-10-18T07:53:30;42.90;;;22.50;;
29720;SDS011;23665;51.044;3.748;2022-10-18T07:55:59;36.57;;;23.33;;
29720;SDS011;23665;51.044;3.748;2022-10-18T07:58:26;46.33;;;23.47;;
29720;SDS011;23665;51.044;3.748;2022-10-18T08:00:52;36.23;;;21.63;;
29720;SDS011;23665;51.044;3.748;2022-10-18T08:03:18;36.73;;;22.30;;
29720;SDS011;23665;51.044;3.748;2022-10-18T08:05:49;35.97;;;22.17;;
29720;SDS011;23665;51.044;3.748;2022-10-18T08:08:17;29.43;;;20.67;;
29720;SDS011;23665;51.044;3.748;2022-10-18T08:10:43;28.13;;;18.83;;
29720;SDS011;23665;51.044;3.748;2022-10-18T08:13:08;33.93;;;19.13;;
29720;SDS011;23665;51.044;3.748;2022-10-18T08:15:34;41.83;;;19.97;;
29720;SDS011;23665;51.044;3.748;2022-10-18T08:18:00;31.63;;;20.50;;
29720;SDS011;23665;51.044;3.748;2022-10-18T08:20:26;38.83;;;19.57;;
29720;SDS011;23665;51.044;3.748;2022-10-18T08:22:52;34.83;;;19.53;;
29720;SDS011;23665;51.044;3.748;2022-10-18T08:25:18;41.37;;;19.23;;
29720;SDS011;23665;51.044;3.748;2022-10-18T08:27:44;41.00;;;22.27;;
29720;SDS011;23665;51.044;3.748;2022-10-18T08:30:10;38.23;;;21.87;;
29720;SDS011;23665;51.044;3.748;2022-10-18T08:32:36;37.83;;;19.17;;
29720;SDS011;23665;51.044;3.748;2022-10-18T08:35:02;36.07;;;20.00;;
29720;SDS011;23665;51.044;3.748;2022-10-18T08:37:28;34.57;;;14.73;;
29720;SDS011;23665;51.044;3.748;2022-10-18T08:39:54;41.07;;;18.80;;
29720;SDS011;23665;51.044;3.748;2022-10-18T08:45:05;39.87;;;16.50;;
29720;SDS011;23665;51.044;3.748;2022-10-18T08:47:35;38.33;;;16.20;;
29720;SDS011;23665;51.044;3.748;2022-10-18T08:50:46;29.17;;;14.00;;
29720;SDS011;23665;51.044;3.748;2022-10-18T08:53:04;35.50;;;14.30;;
29720;SDS011;23665;51.044;3.748;2022-10-18T08:55:49;23.97;;;11.77;;
29720;SDS011;23665;51.044;3.748;2022-10-18T08:58:24;26.40;;;12.90;;
29720;SDS011;23665;51.044;3.748;2022-10-18T09:09:24;27.37;;;10.90;;
29720;SDS011;23665;51.044;3.748;2022-10-18T09:17:22;20.70;;;8.10;;
29720;SDS011;23665;51.044;3.748;2022-10-18T09:30:42;17.70;;;7.37;;
29720;SDS011;23665;51.044;3.748;2022-10-18T09:36:00;16.93;;;6.10;;
29720;SDS011;23665;51.044;3.748;2022-10-18T09:38:33;24.87;;;6.10;;
29720;SDS011;23665;51.044;3.748;2022-10-18T09:41:07;17.70;;;6.37;;
29720;SDS011;23665;51.044;3.748;2022-10-18T09:46:29;19.00;;;5.60;;
29720;SDS011;23665;51.044;3.748;2022-10-18T09:49:09;20.37;;;6.40;;
29720;SDS011;23665;51.044;3.748;2022-10-18T09:51:37;23.40;;;5.53;;
29720;SDS011;23665;51.044;3.748;2022-10-18T09:54:17;20.30;;;5.00;;
29720;SDS011;23665;51.044;3.748;2022-10-18T09:59:37;20.77;;;5.10;;
29720;SDS011;23665;51.044;3.748;2022-10-18T10:02:07;13.97;;;4.43;;
29720;SDS011;23665;51.044;3.748;2022-10-18T10:04:45;15.07;;;3.50;;
29720;SDS011;23665;51.044;3.748;2022-10-18T10:07:12;19.13;;;3.87;;
29720;SDS011;23665;51.044;3.748;2022-10-18T10:09:46;26.77;;;4.87;;
29720;SDS011;23665;51.044;3.748;2022-10-18T10:15:05;14.90;;;3.57;;
29720;SDS011;23665;51.044;3.748;2022-10-18T10:17:41;17.83;;;3.60;;
29720;SDS011;23665;51.044;3.748;2022-10-18T10:20:17;19.37;;;3.30;;
29720;SDS011;23665;51.044;3.748;2022-10-18T10:22:45;21.33;;;2.83;;
29720;SDS011;23665;51.044;3.748;2022-10-18T10:25:22;17.50;;;2.80;;
29720;SDS011;23665;51.044;3.748;2022-10-18T10:27:54;14.63;;;2.97;;
29720;SDS011;23665;51.044;3.748;2022-10-18T10:30:34;16.70;;;2.40;;
29720;SDS011;23665;51.044;3.748;2022-10-18T10:33:01;12.73;;;2.70;;
29720;SDS011;23665;51.044;3.748;2022-10-18T10:35:38;18.80;;;2.33;;
29720;SDS011;23665;51.044;3.748;2022-10-18T10:38:05;13.23;;;3.43;;
29720;SDS011;23665;51.044;3.748;2022-10-18T10:40:47;11.03;;;1.90;;
29720;SDS011;23665;51.044;3.748;2022-10-18T10:43:18;12.37;;;2.50;;
29720;SDS011;23665;51.044;3.748;2022-10-18T10:46:13;20.50;;;3.10;;
29720;SDS011;23665;51.044;3.748;2022-10-18T10:48:48;18.87;;;2.70;;
29720;SDS011;23665;51.044;3.748;2022-10-18T10:51:18;15.30;;;2.87;;
29720;SDS011;23665;51.044;3.748;2022-10-18T10:54:00;15.87;;;2.30;;
29720;SDS011;23665;51.044;3.748;2022-10-18T10:56:36;18.30;;;5.77;;
29720;SDS011;23665;51.044;3.748;2022-10-18T10:59:53;12.37;;;2.57;;
29720;SDS011;23665;51.044;3.748;2022-10-18T11:02:31;13.77;;;3.03;;
29720;SDS011;23665;51.044;3.748;2022-10-18T11:07:47;18.90;;;3.63;;
29720;SDS011;23665;51.044;3.748;2022-10-18T11:10:24;16.57;;;2.93;;
29720;SDS011;23665;51.044;3.748;2022-10-18T11:12:57;14.63;;;2.43;;
29720;SDS011;23665;51.044;3.748;2022-10-18T11:15:40;14.77;;;3.77;;
29720;SDS011;23665;51.044;3.748;2022-10-18T11:18:28;16.20;;;2.57;;
29720;SDS011;23665;51.044;3.748;2022-10-18T11:21:07;10.23;;;2.60;;
29720;SDS011;23665;51.044;3.748;2022-10-18T11:23:40;9.57;;;2.70;;
29720;SDS011;23665;51.044;3.748;2022-10-18T11:31:42;17.50;;;2.43;;
29720;SDS011;23665;51.044;3.748;2022-10-18T11:48:52;10.20;;;2.77;;
29720;SDS011;23665;51.044;3.748;2022-10-18T11:51:43;11.37;;;3.10;;
29720;SDS011;23665;51.044;3.748;2022-10-18T12:00:02;19.97;;;2.87;;
29720;SDS011;23665;51.044;3.748;2022-10-18T12:05:09;15.80;;;2.57;;
29720;SDS011;23665;51.044;3.748;2022-10-18T12:07:39;7.40;;;1.60;;
29720;SDS011;23665;51.044;3.748;2022-10-18T12:10:14;9.40;;;2.40;;
29720;SDS011;23665;51.044;3.748;2022-10-18T12:12:53;12.17;;;2.33;;
29720;SDS011;23665;51.044;3.748;2022-10-18T12:15:23;13.37;;;2.87;;
29720;SDS011;23665;51.044;3.748;2022-10-18T12:17:52;15.97;;;2.93;;
29720;SDS011;23665;51.044;3.748;2022-10-18T12:25:39;13.23;;;2.47;;
29720;SDS011;23665;51.044;3.748;2022-10-18T12:28:39;17.57;;;2.27;;
29720;SDS011;23665;51.044;3.748;2022-10-18T12:31:21;7.80;;;1.90;;
29720;SDS011;23665;51.044;3.748;2022-10-18T12:42:47;16.50;;;2.57;;
29720;SDS011;23665;51.044;3.748;2022-10-18T12:48:22;16.93;;;2.60;;
29720;SDS011;23665;51.044;3.748;2022-10-18T12:50:56;10.33;;;2.07;;
29720;SDS011;23665;51.044;3.748;2022-10-18T12:53:25;16.63;;;2.67;;
29720;SDS011;23665;51.044;3.748;2022-10-18T12:55:52;15.63;;;2.00;;
29720;SDS011;23665;51.044;3.748;2022-10-18T13:08:35;14.07;;;3.20;;
29720;SDS011;23665;51.044;3.748;2022-10-18T13:30:26;12.07;;;2.07;;
29720;SDS011;23665;51.044;3.748;2022-10-18T13:41:13;16.23;;;3.10;;
29720;SDS011;23665;51.044;3.748;2022-10-18T13:46:21;16.43;;;4.70;;
29720;SDS011;23665;51.044;3.748;2022-10-18T13:57:52;20.33;;;4.20;;
29720;SDS011;23665;51.044;3.748;2022-10-18T14:05:55;20.47;;;4.53;;
29720;SDS011;23665;51.044;3.748;2022-10-18T14:16:42;14.77;;;5.70;;
29720;SDS011;23665;51.044;3.748;2022-10-18T14:19:38;23.00;;;5.10;;
29720;SDS011;23665;51.044;3.748;2022-10-18T14:22:22;21.43;;;4.57;;
29720;SDS011;23665;51.044;3.748;2022-10-18T14:24:56;17.00;;;3.33;;
29720;SDS011;23665;51.044;3.748;2022-10-18T14:27:24;17.57;;;3.27;;
29720;SDS011;23665;51.044;3.748;2022-10-18T14:32:51;15.27;;;4.60;;
29720;SDS011;23665;51.044;3.748;2022-10-18T14:35:19;15.77;;;3.90;;
29720;SDS011;23665;51.044;3.748;2022-10-18T14:37:48;18.83;;;3.20;;
29720;SDS011;23665;51.044;3.748;2022-10-18T14:43:11;13.40;;;3.53;;
29720;SDS011;23665;51.044;3.748;2022-10-18T14:45:38;14.33;;;2.83;;
29720;SDS011;23665;51.044;3.748;2022-10-18T14:50:47;18.70;;;3.13;;
29720;SDS011;23665;51.044;3.748;2022-10-18T14:53:24;11.43;;;3.07;;
29720;SDS011;23665;51.044;3.748;2022-10-18T14:55:59;20.63;;;4.07;;
29720;SDS011;23665;51.044;3.748;2022-10-18T14:58:30;17.23;;;2.53;;
29720;SDS011;23665;51.044;3.748;2022-10-18T15:00:57;17.63;;;3.23;;
29720;SDS011;23665;51.044;3.748;2022-10-18T15:03:23;15.73;;;2.60;;
29720;SDS011;23665;51.044;3.748;2022-10-18T15:08:25;14.73;;;2.70;;
29720;SDS011;23665;51.044;3.748;2022-10-18T15:10:58;17.43;;;2.70;;
29720;SDS011;23665;51.044;3.748;2022-10-18T15:13:25;13.67;;;2.60;;
29720;SDS011;23665;51.044;3.748;2022-10-18T15:15:52;11.47;;;1.80;;
29720;SDS011;23665;51.044;3.748;2022-10-18T15:18:21;18.10;;;2.33;;
29720;SDS011;23665;51.044;3.748;2022-10-18T15:23:47;9.00;;;1.80;;
29720;SDS011;23665;51.044;3.748;2022-10-18T15:26:14;14.27;;;1.83;;
29720;SDS011;23665;51.044;3.748;2022-10-18T15:28:49;14.53;;;2.20;;
29720;SDS011;23665;51.044;3.748;2022-10-18T15:33:51;9.77;;;1.63;;
29720;SDS011;23665;51.044;3.748;2022-10-18T15:36:25;11.37;;;2.00;;
29720;SDS011;23665;51.044;3.748;2022-10-18T15:39:02;13.93;;;2.30;;
29720;SDS011;23665;51.044;3.748;2022-10-18T15:41:52;13.60;;;2.43;;
29720;SDS011;23665;51.044;3.748;2022-10-18T15:44:22;14.00;;;2.00;;
29720;SDS011;23665;51.044;3.748;2022-10-18T15:49:46;11.70;;;1.77;;
29720;SDS011;23665;51.044;3.748;2022-10-18T15:54:56;10.80;;;2.67;;
29720;SDS011;23665;51.044;3.748;2022-10-18T15:57:23;16.53;;;2.10;;
29720;SDS011;23665;51.044;3.748;2022-10-18T15:59:53;12.07;;;2.20;;
29720;SDS011;23665;51.044;3.748;2022-10-18T16:02:32;13.47;;;2.47;;
29720;SDS011;23665;51.044;3.748;2022-10-18T16:04:58;11.27;;;2.00;;
29720;SDS011;23665;51.044;3.748;2022-10-18T16:07:25;10.23;;;1.67;;
29720;SDS011;23665;51.044;3.748;2022-10-18T16:09:51;14.57;;;2.57;;
29720;SDS011;23665;51.044;3.748;2022-10-18T16:12:17;10.90;;;1.50;;
29720;SDS011;23665;51.044;3.748;2022-10-18T16:14:42;11.20;;;2.00;;
29720;SDS011;23665;51.044;3.748;2022-10-18T16:17:09;7.27;;;1.90;;
29720;SDS011;23665;51.044;3.748;2022-10-18T16:19:41;15.33;;;2.30;;
29720;SDS011;23665;51.044;3.748;2022-10-18T16:22:12;14.30;;;2.40;;
29720;SDS011;23665;51.044;3.748;2022-10-18T16:24:38;12.67;;;2.00;;
29720;SDS011;23665;51.044;3.748;2022-10-18T16:27:05;9.53;;;2.00;;
29720;SDS011;23665;51.044;3.748;2022-10-18T16:29:31;13.80;;;2.63;;
29720;SDS011;23665;51.044;3.748;2022-10-18T16:31:57;10.97;;;2.23;;
29720;SDS011;23665;51.044;3.748;2022-10-18T16:34:24;11.63;;;2.03;;
29720;SDS011;23665;51.044;3.748;2022-10-18T16:36:51;15.03;;;2.20;;
29720;SDS011;23665;51.044;3.748;2022-10-18T16:39:18;10.73;;;2.33;;
29720;SDS011;23665;51.044;3.748;2022-10-18T16:41:45;12.27;;;1.97;;
29720;SDS011;23665;51.044;3.748;2022-10-18T16:44:12;11.80;;;2.07;;
29720;SDS011;23665;51.044;3.748;2022-10-18T16:46:39;9.90;;;2.10;;
29720;SDS011;23665;51.044;3.748;2022-10-18T16:49:05;18.20;;;2.90;;
29720;SDS011;23665;51.044;3.748;2022-10-18T16:51:36;14.67;;;2.30;;
29720;SDS011;23665;51.044;3.748;2022-10-18T16:54:02;15.23;;;3.10;;
29720;SDS011;23665;51.044;3.748;2022-10-18T16:56:28;18.83;;;2.70;;
29720;SDS011;23665;51.044;3.748;2022-10-18T16:58:56;12.30;;;2.30;;
29720;SDS011;23665;51.044;3.748;2022-10-18T17:01:22;13.40;;;3.00;;
29720;SDS011;23665;51.044;3.748;2022-10-18T17:03:49;13.17;;;2.87;;
29720;SDS011;23665;51.044;3.748;2022-10-18T17:08:46;11.63;;;3.13;;
29720;SDS011;23665;51.044;3.748;2022-10-18T17:11:13;9.73;;;2.80;;
29720;SDS011;23665;51.044;3.748;2022-10-18T17:13:40;18.23;;;3.30;;
29720;SDS011;23665;51.044;3.748;2022-10-18T17:16:06;10.00;;;2.30;;
29720;SDS011;23665;51.044;3.748;2022-10-18T17:18:37;16.13;;;3.00;;
29720;SDS011;23665;51.044;3.748;2022-10-18T17:21:03;16.37;;;2.93;;
29720;SDS011;23665;51.044;3.748;2022-10-18T17:23:29;14.50;;;2.40;;
29720;SDS011;23665;51.044;3.748;2022-10-18T17:25:55;9.73;;;2.27;;
29720;SDS011;23665;51.044;3.748;2022-10-18T17:28:21;9.63;;;1.97;;
29720;SDS011;23665;51.044;3.748;2022-10-18T17:30:47;18.77;;;3.37;;
29720;SDS011;23665;51.044;3.748;2022-10-18T17:33:13;16.60;;;3.40;;
29720;SDS011;23665;51.044;3.748;2022-10-18T17:35:39;14.67;;;3.27;;
29720;SDS011;23665;51.044;3.748;2022-10-18T17:38:07;13.83;;;2.60;;
29720;SDS011;23665;51.044;3.748;2022-10-18T17:40:33;8.13;;;2.73;;
29720;SDS011;23665;51.044;3.748;2022-10-18T17:42:59;11.93;;;3.20;;
29720;SDS011;23665;51.044;3.748;2022-10-18T17:45:25;14.93;;;4.03;;
29720;SDS011;23665;51.044;3.748;2022-10-18T17:47:51;14.27;;;3.73;;
29720;SDS011;23665;51.044;3.748;2022-10-18T17:50:17;9.33;;;3.03;;
29720;SDS011;23665;51.044;3.748;2022-10-18T17:52:43;11.90;;;3.83;;